Time;durP1;ratioP1;P1;durP2;ratioP2;P2;SDS_P1;SDS_P2;PMS_P1;PMS_P2;Temp;Humidity;BMP_temperature;BMP_pressure;BME280_temperature;BME280_humidity;BME280_pressure;Samples;Min_cycle;Max_cycle;Signal;HPM_P1;HPM_P2
2022/11/04 00:01:57;;;;;;;6.60;2.97;;;13.70;99.90;;;;;;4992593;28;20496;-72
2022/11/04 00:04:25;;;;;;;9.07;3.40;;;13.70;99.90;;;;;;4992531;28;20125;-72
2022/11/04 00:06:51;;;;;;;9.68;2.88;;;13.70;99.90;;;;;;4992432;28;20033;-71
2022/11/04 00:09:23;;;;;;;5.93;3.13;;;13.70;99.90;;;;;;4992479;28;20040;-73
2022/11/04 00:14:34;;;;;;;11.13;3.15;;;13.80;99.90;;;;;;4992406;28;20109;-72
2022/11/04 00:17:20;;;;;;;6.45;3.03;;;13.80;99.90;;;;;;4992210;28;20137;-72
2022/11/04 00:33:24;;;;;;;5.90;3.08;;;13.90;99.90;;;;;;4992128;28;20036;-72
2022/11/04 00:33:46;;;;;;;5.53;2.88;;;13.80;99.90;;;;;;4992201;28;20030;-71
2022/11/04 00:36:11;;;;;;;6.37;3.10;;;13.90;99.90;;;;;;4992079;28;20050;-73
2022/11/04 00:38:37;;;;;;;5.82;3.03;;;13.90;99.90;;;;;;4992706;28;20061;-73
2022/11/04 00:41:24;;;;;;;7.97;3.25;;;13.90;99.90;;;;;;4992051;28;20038;-73
2022/11/04 00:43:48;;;;;;;6.03;2.85;;;13.90;99.90;;;;;;4991759;28;20129;-73
2022/11/04 00:46:14;;;;;;;4.45;2.75;;;13.90;99.90;;;;;;4991807;28;20795;-72
2022/11/04 00:48:39;;;;;;;7.28;2.95;;;14.00;99.90;;;;;;4991728;28;20089;-72
2022/11/04 00:51:05;;;;;;;9.43;3.20;;;13.90;99.90;;;;;;4991661;28;20022;-72
2022/11/04 00:53:31;;;;;;;9.35;3.42;;;14.00;99.90;;;;;;4991280;28;20117;-72
2022/11/04 00:55:58;;;;;;;9.40;2.50;;;14.00;99.90;;;;;;4991991;28;20058;-71
2022/11/04 00:58:24;;;;;;;5.88;3.13;;;14.00;99.90;;;;;;4990490;28;20072;-73
2022/11/04 01:00:50;;;;;;;4.60;2.80;;;14.00;99.90;;;;;;4991378;28;20061;-72
2022/11/04 01:03:15;;;;;;;8.00;2.85;;;14.00;99.90;;;;;;4991656;28;20034;-72
2022/11/04 01:05:41;;;;;;;7.47;3.47;;;14.00;99.90;;;;;;4991048;28;20109;-73
2022/11/04 01:08:07;;;;;;;5.28;3.15;;;14.00;99.90;;;;;;4990637;28;20042;-71
2022/11/04 01:10:35;;;;;;;5.80;3.28;;;14.00;99.90;;;;;;4991255;28;20150;-71
2022/11/04 01:13:01;;;;;;;;;;;14.00;99.90;;;;;;4992308;28;20045;-73
2022/11/04 01:15:26;;;;;;;6.45;3.30;;;14.10;99.90;;;;;;4991591;28;19909;-71
2022/11/04 01:17:52;;;;;;;9.05;3.88;;;14.00;99.90;;;;;;4990714;28;20042;-72
2022/11/04 01:20:17;;;;;;;7.88;3.42;;;14.10;99.90;;;;;;4990406;28;20035;-71
2022/11/04 01:22:43;;;;;;;7.68;3.60;;;14.00;99.90;;;;;;4991651;28;20100;-73
2022/11/04 01:25:09;;;;;;;9.50;3.53;;;14.00;99.90;;;;;;4991456;28;20455;-70
2022/11/04 01:27:35;;;;;;;5.47;2.95;;;14.00;99.90;;;;;;4991570;28;20471;-73
2022/11/04 01:30:00;;;;;;;7.13;3.50;;;14.00;99.90;;;;;;4991290;28;20101;-73
2022/11/04 01:32:27;;;;;;;6.82;3.47;;;14.00;99.90;;;;;;4991685;28;20352;-71
2022/11/04 01:34:53;;;;;;;7.18;3.15;;;14.00;99.90;;;;;;4991406;28;20109;-72
2022/11/04 01:37:18;;;;;;;6.53;3.38;;;13.90;99.90;;;;;;4990197;28;20471;-71
2022/11/04 01:39:44;;;;;;;5.63;3.10;;;14.00;99.90;;;;;;4991402;28;20041;-72
2022/11/04 01:42:13;;;;;;;8.20;3.60;;;14.00;99.90;;;;;;4991471;28;20034;-71
2022/11/04 01:44:45;;;;;;;7.22;2.90;;;13.90;99.90;;;;;;4990802;28;20042;-71
2022/11/04 01:47:38;;;;;;;6.82;3.20;;;13.90;99.90;;;;;;4990167;28;20049;-71
2022/11/04 01:50:19;;;;;;;4.75;3.25;;;13.90;99.90;;;;;;4991614;28;20368;-73
2022/11/04 01:53:01;;;;;;;8.02;3.22;;;13.90;99.90;;;;;;4991671;28;20121;-73
2022/11/04 01:55:34;;;;;;;9.65;3.47;;;13.90;99.90;;;;;;4991710;28;20038;-70
2022/11/04 01:58:05;;;;;;;5.38;2.92;;;13.90;99.90;;;;;;4991535;28;20042;-70
2022/11/04 02:00:31;;;;;;;5.38;3.08;;;13.80;99.90;;;;;;4991137;28;20026;-72
2022/11/04 02:02:57;;;;;;;5.88;2.92;;;13.80;99.90;;;;;;4991893;28;20030;-72
2022/11/04 02:05:22;;;;;;;5.00;2.80;;;13.90;99.90;;;;;;4995253;28;20041;-72
2022/11/04 02:07:51;;;;;;;6.18;2.72;;;13.90;99.90;;;;;;4993554;28;20022;-73
2022/11/04 02:10:20;;;;;;;4.70;2.70;;;13.80;99.90;;;;;;4994351;28;20050;-72
2022/11/04 02:12:48;;;;;;;5.75;2.67;;;13.80;99.90;;;;;;4994544;28;20037;-73
2022/11/04 02:15:33;;;;;;;6.07;2.97;;;13.80;99.90;;;;;;4994130;28;20026;-73
2022/11/04 02:18:02;;;;;;;7.78;3.58;;;13.80;99.90;;;;;;4994552;28;20026;-73
2022/11/04 02:20:41;;;;;;;5.45;2.95;;;13.80;99.90;;;;;;4995142;28;20029;-73
2022/11/04 02:23:22;;;;;;;3.58;2.22;;;13.80;99.90;;;;;;4994528;28;20334;-73
2022/11/04 02:26:12;;;;;;;4.50;2.40;;;13.80;99.90;;;;;;4994344;28;20026;-73
2022/11/04 02:29:09;;;;;;;3.50;2.47;;;13.80;99.90;;;;;;4994212;28;20031;-73
2022/11/04 02:32:02;;;;;;;2.92;2.45;;;13.80;99.90;;;;;;4994398;28;20026;-72
2022/11/04 02:35:03;;;;;;;4.45;2.85;;;13.80;99.90;;;;;;4994255;28;20544;-71
2022/11/04 02:37:52;;;;;;;4.22;2.60;;;13.80;99.90;;;;;;4940747;28;20043;-73
2022/11/04 02:40:52;;;;;;;5.40;2.78;;;13.80;99.90;;;;;;4974793;28;20031;-73
2022/11/04 02:43:36;;;;;;;3.28;2.20;;;13.80;99.90;;;;;;4974661;28;20420;-72
2022/11/04 02:46:14;;;;;;;6.47;2.72;;;13.80;99.90;;;;;;4974573;28;20035;-72
2022/11/04 02:48:47;;;;;;;3.90;2.67;;;13.80;99.90;;;;;;4974526;28;20034;-73
2022/11/04 02:51:28;;;;;;;5.03;2.38;;;13.80;99.90;;;;;;4974924;28;20034;-72
2022/11/04 02:54:05;;;;;;;5.50;2.60;;;13.80;99.90;;;;;;4973771;28;20027;-73
2022/11/04 02:56:36;;;;;;;4.32;2.33;;;13.80;99.90;;;;;;4974491;28;20232;-72
2022/11/04 02:59:08;;;;;;;3.72;2.63;;;13.90;99.90;;;;;;4974626;28;20603;-72
2022/11/04 03:01:38;;;;;;;4.25;2.47;;;13.90;99.90;;;;;;4974132;28;20042;-73
2022/11/04 03:04:18;;;;;;;4.05;2.55;;;13.90;99.90;;;;;;4989536;28;20041;-71
2022/11/04 03:06:48;;;;;;;4.78;2.40;;;13.90;99.90;;;;;;4974118;28;20325;-71
2022/11/04 03:09:15;;;;;;;6.47;2.38;;;13.90;99.90;;;;;;4974443;28;20038;-71
2022/11/04 03:11:44;;;;;;;6.00;2.45;;;13.90;99.90;;;;;;4974441;28;20239;-72
2022/11/04 03:14:17;;;;;;;5.07;2.40;;;13.90;99.90;;;;;;4973368;28;20061;-72
2022/11/04 03:16:51;;;;;;;5.70;2.13;;;13.90;99.90;;;;;;4973998;28;20043;-72
2022/11/04 03:19:46;;;;;;;3.08;1.67;;;13.90;99.90;;;;;;4974035;28;20457;-73
2022/11/04 03:22:20;;;;;;;2.75;1.48;;;13.80;99.90;;;;;;4973612;28;20069;-74
2022/11/04 03:24:47;;;;;;;1.45;1.17;;;13.80;99.90;;;;;;4974113;28;20526;-73
2022/11/04 03:27:46;;;;;;;2.03;1.50;;;13.60;99.90;;;;;;4973868;28;20520;-72
2022/11/04 03:30:21;;;;;;;2.95;1.20;;;13.70;99.90;;;;;;4973730;28;20029;-72
2022/11/04 03:32:52;;;;;;;1.48;0.98;;;13.70;99.90;;;;;;4974269;28;20041;-71
2022/11/04 03:35:19;;;;;;;2.90;0.80;;;13.60;99.90;;;;;;4973673;28;20027;-73
2022/11/04 03:37:47;;;;;;;3.03;0.70;;;13.60;99.90;;;;;;4973452;28;20046;-72
2022/11/04 03:40:15;;;;;;;0.77;0.70;;;13.60;99.90;;;;;;4973435;28;20113;-74
2022/11/04 03:42:49;;;;;;;1.00;0.70;;;13.50;99.90;;;;;;4973419;28;20123;-73
2022/11/04 03:45:18;;;;;;;0.50;0.50;;;13.50;99.90;;;;;;4973293;28;20026;-72
2022/11/04 03:47:43;;;;;;;1.10;0.68;;;13.50;99.90;;;;;;4973853;28;20035;-71
2022/11/04 03:50:23;;;;;;;0.40;0.40;;;13.60;99.90;;;;;;4973342;28;20026;-72
2022/11/04 03:52:48;;;;;;;2.72;0.90;;;13.60;99.90;;;;;;4973168;28;20094;-73
2022/11/04 03:55:14;;;;;;;3.38;0.73;;;13.60;99.90;;;;;;4973148;28;20062;-72
2022/11/04 03:58:03;;;;;;;3.33;0.85;;;13.50;99.90;;;;;;4973132;28;20056;-72
2022/11/04 04:00:36;;;;;;;1.00;0.75;;;13.40;99.90;;;;;;4973233;28;20039;-72
2022/11/04 04:03:29;;;;;;;1.42;1.00;;;13.40;99.90;;;;;;4973224;28;20039;-71
2022/11/04 04:06:09;;;;;;;1.30;0.98;;;13.30;99.90;;;;;;4965556;28;20034;-73
2022/11/04 04:08:37;;;;;;;1.65;1.13;;;13.30;99.90;;;;;;4971823;28;20050;-71
2022/11/04 04:11:18;;;;;;;1.08;0.98;;;13.40;99.90;;;;;;4971418;28;20121;-71
2022/11/04 04:14:10;;;;;;;1.48;1.20;;;13.40;99.90;;;;;;4972637;28;20455;-72
2022/11/04 04:16:41;;;;;;;3.05;1.40;;;13.30;99.80;;;;;;4972021;28;20034;-71
2022/11/04 04:19:14;;;;;;;2.03;1.60;;;13.40;99.90;;;;;;4972664;28;20373;-72
2022/11/04 04:21:45;;;;;;;4.07;1.90;;;13.20;99.90;;;;;;4972829;28;20030;-72
2022/11/04 04:29:46;;;;;;;2.17;1.98;;;13.30;99.90;;;;;;4973580;28;20041;-72
2022/11/04 04:32:13;;;;;;;2.40;2.05;;;13.10;99.90;;;;;;4972537;28;20377;-72
2022/11/04 04:34:39;;;;;;;3.17;2.10;;;13.10;99.90;;;;;;4972539;28;20349;-73
2022/11/04 04:37:24;;;;;;;9.25;2.35;;;13.10;99.90;;;;;;4972525;28;20042;-72
2022/11/04 04:45:36;;;;;;;10.02;2.45;;;13.20;99.90;;;;;;4972103;28;20376;-73
2022/11/04 04:48:02;;;;;;;3.97;2.60;;;13.00;99.80;;;;;;4972293;28;20491;-72
2022/11/04 04:50:34;;;;;;;2.70;2.50;;;13.00;99.90;;;;;;4972556;28;20353;-71
2022/11/04 04:53:02;;;;;;;3.33;2.60;;;13.10;99.90;;;;;;4972062;28;20062;-72
2022/11/04 04:55:30;;;;;;;8.25;3.45;;;13.20;99.90;;;;;;4972252;28;20034;-72
2022/11/04 04:57:58;;;;;;;4.93;3.00;;;13.10;99.90;;;;;;4971689;28;20380;-72
2022/11/04 05:00:25;;;;;;;3.00;2.70;;;13.20;99.90;;;;;;4972206;28;20449;-74
2022/11/04 05:02:51;;;;;;;7.43;2.60;;;13.20;99.90;;;;;;4971397;28;20117;-72
2022/11/04 05:05:17;;;;;;;6.78;2.88;;;13.10;99.90;;;;;;4972187;28;20058;-72
2022/11/04 05:07:43;;;;;;;4.07;2.85;;;13.20;99.80;;;;;;4972017;28;20417;-73
2022/11/04 05:10:12;;;;;;;3.95;2.95;;;13.10;99.60;;;;;;4970688;28;20047;-73
2022/11/04 05:15:23;;;;;;;5.05;3.47;;;13.10;99.50;;;;;;4972094;28;20476;-73
2022/11/04 05:18:00;;;;;;;3.95;3.10;;;13.10;99.40;;;;;;4971170;28;20121;-72
2022/11/04 05:20:26;;;;;;;4.47;2.97;;;13.10;99.50;;;;;;4971925;28;20437;-73
2022/11/04 05:22:53;;;;;;;6.22;2.67;;;13.00;99.50;;;;;;4971967;28;20250;-72
2022/11/04 05:25:19;;;;;;;3.80;3.20;;;12.90;99.60;;;;;;4971736;28;20367;-72
2022/11/04 05:27:45;;;;;;;4.32;3.72;;;12.90;99.60;;;;;;4971741;28;20027;-73
2022/11/04 05:30:10;;;;;;;4.65;3.20;;;12.90;99.60;;;;;;4972111;28;20448;-72
2022/11/04 05:32:36;;;;;;;4.70;3.88;;;13.00;99.50;;;;;;4972232;28;20025;-71
2022/11/04 05:35:02;;;;;;;4.25;3.10;;;12.90;99.60;;;;;;4971650;28;20031;-72
2022/11/04 05:37:28;;;;;;;3.67;3.28;;;12.90;99.40;;;;;;4970423;28;20035;-73
2022/11/04 05:39:54;;;;;;;3.88;3.47;;;12.90;99.30;;;;;;4974361;28;20294;-73
2022/11/04 05:42:19;;;;;;;6.05;4.72;;;12.70;99.20;;;;;;4975651;28;20372;-73
2022/11/04 05:44:45;;;;;;;5.22;4.15;;;12.80;99.50;;;;;;4975862;28;20389;-72
2022/11/04 05:47:11;;;;;;;7.00;3.88;;;12.80;99.30;;;;;;4975512;28;20077;-73
2022/11/04 05:49:36;;;;;;;4.57;3.80;;;12.80;99.30;;;;;;4975144;28;20473;-73
2022/11/04 05:52:02;;;;;;;4.90;3.95;;;12.80;99.20;;;;;;4975293;28;20389;-74
2022/11/04 05:54:28;;;;;;;6.43;4.22;;;12.80;99.10;;;;;;4974133;28;20094;-72
2022/11/04 05:56:53;;;;;;;4.88;4.35;;;12.80;98.90;;;;;;4975423;28;20050;-73
2022/11/04 05:59:19;;;;;;;7.43;4.05;;;12.80;99.00;;;;;;4973680;28;20462;-72
2022/11/04 06:01:45;;;;;;;5.25;4.07;;;12.60;99.00;;;;;;4973929;28;20063;-72
2022/11/04 06:04:16;;;;;;;7.05;4.50;;;12.70;98.90;;;;;;4973555;28;20058;-71
2022/11/04 06:06:42;;;;;;;5.82;4.20;;;12.80;99.00;;;;;;4974877;28;20030;-74
2022/11/04 06:09:07;;;;;;;5.82;5.07;;;12.80;99.10;;;;;;4974982;28;20097;-73
2022/11/04 06:11:35;;;;;;;8.57;5.65;;;12.70;99.10;;;;;;4975271;28;20121;-74
2022/11/04 06:14:02;;;;;;;6.57;4.95;;;12.70;99.10;;;;;;4975052;28;20121;-72
2022/11/04 06:16:27;;;;;;;6.45;5.43;;;12.80;99.10;;;;;;4974983;28;20030;-73
2022/11/04 06:18:53;;;;;;;8.85;6.10;;;12.60;99.00;;;;;;4973951;28;20058;-72
2022/11/04 06:21:29;;;;;;;8.60;5.03;;;12.80;99.00;;;;;;4975137;28;20041;-72
2022/11/04 06:23:56;;;;;;;7.53;5.32;;;12.80;99.00;;;;;;4974123;28;20034;-73
2022/11/04 06:26:23;;;;;;;7.38;5.55;;;12.80;98.90;;;;;;4974833;28;20368;-73
2022/11/04 06:28:49;;;;;;;6.57;4.80;;;12.80;98.90;;;;;;4974899;28;20023;-72
2022/11/04 06:31:16;;;;;;;10.00;6.38;;;12.80;99.00;;;;;;4973381;28;20045;-73
2022/11/04 06:33:42;;;;;;;8.10;5.55;;;12.80;99.00;;;;;;4973438;28;20042;-72
2022/11/04 06:36:13;;;;;;;9.60;4.95;;;12.80;99.00;;;;;;4973285;28;20452;-72
2022/11/04 06:38:39;;;;;;;10.43;6.07;;;12.80;99.00;;;;;;4973881;28;20368;-72
2022/11/04 06:41:09;;;;;;;7.53;4.85;;;12.90;99.10;;;;;;4974130;28;20127;-72
2022/11/04 06:43:35;;;;;;;11.00;5.97;;;12.90;99.00;;;;;;4974282;28;20181;-74
2022/11/04 06:46:01;;;;;;;11.00;5.47;;;13.00;99.00;;;;;;4974192;28;20118;-74
2022/11/04 06:48:31;;;;;;;6.47;4.95;;;13.00;99.00;;;;;;4974180;28;20038;-73
2022/11/04 06:50:58;;;;;;;6.25;4.45;;;13.00;98.90;;;;;;4974114;28;20234;-74
2022/11/04 06:53:24;;;;;;;6.22;3.95;;;13.00;98.90;;;;;;4974856;28;20138;-72
2022/11/04 06:55:51;;;;;;;9.82;4.40;;;13.00;99.00;;;;;;4973966;28;20031;-73
2022/11/04 06:58:17;;;;;;;9.38;4.53;;;13.00;99.00;;;;;;4973777;28;20043;-73
2022/11/04 07:00:44;;;;;;;9.45;4.55;;;13.00;99.00;;;;;;4973669;28;20177;-73
2022/11/04 07:03:10;;;;;;;5.55;4.20;;;13.10;98.90;;;;;;4988994;28;20528;-74
2022/11/04 07:05:35;;;;;;;7.68;4.93;;;13.10;98.80;;;;;;4989289;28;20118;-71
2022/11/04 07:08:01;;;;;;;7.85;4.80;;;13.00;98.80;;;;;;4973977;28;20071;-73
2022/11/04 07:10:26;;;;;;;8.32;4.28;;;13.00;98.80;;;;;;4973381;28;20117;-71
2022/11/04 07:12:53;;;;;;;7.80;4.70;;;13.00;98.70;;;;;;4974001;28;20038;-74
2022/11/04 07:15:19;;;;;;;6.88;4.32;;;13.10;98.70;;;;;;4973683;28;20517;-75
2022/11/04 07:17:45;;;;;;;6.53;4.63;;;13.20;98.60;;;;;;4974042;28;20125;-73
2022/11/04 07:20:12;;;;;;;8.05;4.40;;;13.10;98.60;;;;;;4972634;28;20030;-73
2022/11/04 07:22:38;;;;;;;8.93;4.38;;;13.20;98.50;;;;;;4973767;28;20120;-75
2022/11/04 07:25:05;;;;;;;7.70;4.30;;;13.10;98.30;;;;;;4973992;28;20038;-76
2022/11/04 07:27:31;;;;;;;6.68;4.45;;;13.10;98.40;;;;;;4973579;28;20031;-75
2022/11/04 07:29:56;;;;;;;4.80;3.92;;;13.10;98.30;;;;;;4973702;28;20045;-71
2022/11/04 07:32:22;;;;;;;7.30;4.22;;;13.10;98.40;;;;;;4972789;28;20039;-74
2022/11/04 07:34:48;;;;;;;15.80;4.10;;;13.10;98.20;;;;;;4972197;28;20041;-74
2022/11/04 07:37:13;;;;;;;6.25;3.88;;;13.10;98.20;;;;;;4973451;28;20473;-74
2022/11/04 07:39:39;;;;;;;4.93;3.28;;;13.10;97.80;;;;;;4972196;28;20126;-75
2022/11/04 07:42:07;;;;;;;5.18;3.78;;;13.10;97.80;;;;;;4973537;28;20058;-73
2022/11/04 07:44:33;;;;;;;;;;;13.00;97.90;;;;;;4973184;28;20102;-73
2022/11/04 07:46:59;;;;;;;4.82;3.65;;;13.10;97.90;;;;;;4973147;28;19998;-74
2022/11/04 07:49:24;;;;;;;5.72;3.38;;;13.10;97.90;;;;;;4972100;28;20034;-74
2022/11/04 07:51:50;;;;;;;6.97;3.58;;;13.10;98.10;;;;;;4973086;28;20059;-73
2022/11/04 07:54:16;;;;;;;11.48;6.18;;;13.20;97.80;;;;;;4972909;28;20047;-72
2022/11/04 07:56:42;;;;;;;4.93;3.53;;;13.20;97.80;;;;;;4973464;28;20049;-72
2022/11/04 07:59:08;;;;;;;4.75;3.22;;;13.20;97.70;;;;;;4987786;28;20055;-73
2022/11/04 08:01:33;;;;;;;5.88;3.25;;;13.20;98.00;;;;;;4972049;28;20122;-72
2022/11/04 08:03:59;;;;;;;6.40;3.25;;;13.30;97.70;;;;;;4971851;28;20421;-75
2022/11/04 08:06:25;;;;;;;8.20;3.53;;;13.20;97.60;;;;;;4972675;28;20361;-73
2022/11/04 08:08:52;;;;;;;10.63;3.83;;;13.20;97.40;;;;;;4973442;28;20094;-73
2022/11/04 08:11:23;;;;;;;6.13;3.30;;;13.20;97.40;;;;;;4972961;28;20074;-75
2022/11/04 08:13:49;;;;;;;9.10;3.00;;;13.30;97.50;;;;;;4973054;28;20061;-75
2022/11/04 08:16:20;;;;;;;5.03;3.15;;;13.30;97.20;;;;;;4972949;28;20466;-74
2022/11/04 08:18:47;;;;;;;12.05;3.08;;;13.20;97.30;;;;;;4973203;28;20042;-75
2022/11/04 08:21:15;;;;;;;7.55;3.38;;;13.10;97.30;;;;;;4972884;28;20418;-77
2022/11/04 08:23:40;;;;;;;7.50;2.95;;;13.20;97.40;;;;;;4971946;28;20022;-74
2022/11/04 08:26:10;;;;;;;7.75;3.10;;;13.10;97.50;;;;;;4987686;28;20097;-74
2022/11/04 08:28:36;;;;;;;5.40;3.22;;;13.20;97.50;;;;;;4987650;28;20118;-75
2022/11/04 08:31:06;;;;;;;12.45;3.33;;;13.20;97.40;;;;;;4972687;28;20026;-75
2022/11/04 08:33:32;;;;;;;4.10;2.47;;;13.10;97.60;;;;;;4987589;28;20357;-74
2022/11/04 08:36:17;;;;;;;10.20;3.40;;;13.20;97.40;;;;;;4971293;28;20026;-73
2022/11/04 08:38:43;;;;;;;4.93;3.17;;;13.20;97.40;;;;;;4987841;28;20033;-73
2022/11/04 08:41:10;;;;;;;11.90;3.55;;;13.20;97.30;;;;;;4987132;28;20085;-72
2022/11/04 08:43:36;;;;;;;7.60;3.37;;;13.30;97.40;;;;;;4972278;28;20035;-73
2022/11/04 08:46:06;;;;;;;6.40;3.00;;;13.30;97.30;;;;;;4987266;28;20065;-72
2022/11/04 08:48:33;;;;;;;6.95;2.60;;;13.30;97.30;;;;;;4972153;28;20034;-74
2022/11/04 08:50:59;;;;;;;6.17;2.67;;;13.30;97.50;;;;;;4986958;28;20023;-74
2022/11/04 08:53:25;;;;;;;6.82;2.78;;;13.20;97.40;;;;;;4973112;28;20707;-72
2022/11/04 08:55:51;;;;;;;5.45;2.80;;;13.30;97.40;;;;;;4972181;28;20119;-73
2022/11/04 08:58:17;;;;;;;7.20;3.22;;;13.20;97.40;;;;;;4971742;28;20030;-72
2022/11/04 09:00:43;;;;;;;5.30;3.53;;;13.30;97.50;;;;;;4971900;28;20057;-75
2022/11/04 09:03:08;;;;;;;7.18;2.97;;;13.40;97.40;;;;;;4987088;28;20461;-73
2022/11/04 09:05:46;;;;;;;6.70;2.90;;;13.50;97.30;;;;;;4972459;28;20299;-73
2022/11/04 09:08:16;;;;;;;6.18;3.10;;;13.60;97.40;;;;;;4970757;28;20114;-73
2022/11/04 09:10:46;;;;;;;32.83;18.33;;;13.60;97.30;;;;;;4972003;28;20058;-73
2022/11/04 09:13:14;;;;;;;21.77;10.50;;;13.70;97.20;;;;;;4973637;28;20046;-72
2022/11/04 09:15:40;;;;;;;8.10;4.28;;;13.70;96.90;;;;;;4976474;28;20042;-74
2022/11/04 09:18:06;;;;;;;7.25;3.47;;;13.80;97.10;;;;;;4991083;28;20031;-71
2022/11/04 09:20:33;;;;;;;6.38;3.25;;;13.80;96.60;;;;;;4976502;28;20018;-75
2022/11/04 09:22:59;;;;;;;7.78;3.70;;;13.50;96.80;;;;;;4991453;28;20027;-75
2022/11/04 09:25:25;;;;;;;9.20;3.97;;;13.70;97.30;;;;;;4976079;28;20031;-72
2022/11/04 09:27:51;;;;;;;12.00;3.72;;;13.90;97.20;;;;;;4976004;28;20031;-74
2022/11/04 09:30:17;;;;;;;9.75;3.42;;;13.90;97.00;;;;;;4975102;28;20345;-74
2022/11/04 09:32:42;;;;;;;12.48;3.17;;;14.00;96.80;;;;;;4976423;28;20030;-72
2022/11/04 09:35:08;;;;;;;9.48;3.58;;;13.90;96.80;;;;;;4974515;28;20035;-72
2022/11/04 09:37:34;;;;;;;9.63;3.13;;;14.00;96.80;;;;;;4974716;28;20039;-72
2022/11/04 09:40:00;;;;;;;8.02;3.08;;;13.80;96.30;;;;;;4976049;28;20038;-72
2022/11/04 09:42:37;;;;;;;5.28;3.38;;;13.90;96.80;;;;;;4974741;28;20030;-73
2022/11/04 09:45:17;;;;;;;6.50;3.20;;;13.80;96.60;;;;;;4975922;28;20030;-73
2022/11/04 09:47:46;;;;;;;12.55;4.72;;;13.90;96.70;;;;;;4991045;28;20031;-71
2022/11/04 09:50:23;;;;;;;4.93;2.70;;;13.80;96.50;;;;;;4975585;28;20492;-74
2022/11/04 09:52:55;;;;;;;7.07;3.83;;;13.70;96.20;;;;;;4990836;28;20114;-71
2022/11/04 09:55:59;;;;;;;8.25;5.28;;;13.80;96.70;;;;;;4975362;28;20533;-71
2022/11/04 09:58:24;;;;;;;7.25;3.38;;;13.80;96.70;;;;;;4963660;28;20500;-75
2022/11/04 10:01:04;;;;;;;5.78;3.15;;;13.90;96.80;;;;;;4975542;28;20046;-76
2022/11/04 10:04:05;;;;;;;10.65;3.65;;;13.80;96.50;;;;;;4974303;28;20472;-76
2022/11/04 10:07:00;;;;;;;4.32;2.70;;;13.90;96.60;;;;;;4975321;28;20039;-73
2022/11/04 10:09:50;;;;;;;11.20;2.92;;;13.60;96.50;;;;;;4974953;28;20035;-74
2022/11/04 10:12:50;;;;;;;9.07;2.88;;;13.50;96.70;;;;;;4974732;28;20043;-75
2022/11/04 10:15:45;;;;;;;8.43;2.53;;;13.50;96.80;;;;;;4975225;28;20469;-74
2022/11/04 10:18:16;;;;;;;12.85;3.78;;;13.70;96.60;;;;;;4973715;28;20464;-74
2022/11/04 10:21:08;;;;;;;5.50;2.75;;;13.80;96.70;;;;;;4975159;28;20405;-74
2022/11/04 10:23:56;;;;;;;6.10;2.92;;;13.80;96.50;;;;;;4974197;28;20429;-76
2022/11/04 10:26:34;;;;;;;7.65;2.97;;;13.80;96.50;;;;;;4974960;28;20205;-72
2022/11/04 10:29:04;;;;;;;7.00;2.47;;;13.80;96.50;;;;;;4974733;28;20041;-71
2022/11/04 10:31:30;;;;;;;5.45;2.83;;;13.80;96.50;;;;;;4974808;28;20031;-73
2022/11/04 10:34:04;;;;;;;5.22;2.58;;;13.50;96.60;;;;;;4974621;28;20038;-73
2022/11/04 10:36:31;;;;;;;5.70;2.95;;;13.80;96.70;;;;;;4973443;28;20061;-72
2022/11/04 10:39:00;;;;;;;76.47;40.50;;;14.20;96.40;;;;;;4989582;28;20030;-70
2022/11/04 10:41:36;;;;;;;23.10;11.40;;;14.70;96.40;;;;;;4974903;28;20093;-71
2022/11/04 10:44:06;;;;;;;9.00;3.47;;;14.90;95.30;;;;;;4974387;28;20082;-72
2022/11/04 10:46:38;;;;;;;9.50;2.83;;;14.90;94.90;;;;;;4974398;28;20031;-70
2022/11/04 10:49:24;;;;;;;6.07;2.25;;;14.80;95.10;;;;;;4974397;28;20023;-70
2022/11/04 10:51:50;;;;;;;9.50;2.47;;;14.90;95.10;;;;;;4974380;28;20427;-71
2022/11/04 10:54:16;;;;;;;6.38;2.53;;;15.00;94.90;;;;;;4973098;28;20110;-70
2022/11/04 10:56:50;;;;;;;6.00;2.80;;;15.00;94.90;;;;;;4974574;28;20388;-70
2022/11/04 10:59:25;;;;;;;6.03;2.60;;;15.00;95.10;;;;;;4989338;28;20030;-72
2022/11/04 11:01:53;;;;;;;4.82;2.10;;;15.20;95.00;;;;;;4973990;28;20023;-70
2022/11/04 11:04:29;;;;;;;;;;;15.00;94.40;;;;;;4974562;28;20054;-72
2022/11/04 11:06:56;;;;;;;4.85;2.10;;;15.00;94.10;;;;;;4989294;28;19914;-70
2022/11/04 11:09:28;;;;;;;12.65;5.28;;;14.70;94.10;;;;;;4972706;28;20098;-71
2022/11/04 11:12:17;;;;;;;6.50;2.15;;;14.50;94.10;;;;;;4974113;28;20047;-72
2022/11/04 11:14:43;;;;;;;5.38;2.58;;;14.50;94.50;;;;;;4974047;28;20058;-71
2022/11/04 11:17:14;;;;;;;5.30;2.42;;;14.30;94.60;;;;;;4973716;28;20063;-72
2022/11/04 11:19:49;;;;;;;5.40;2.00;;;14.30;94.80;;;;;;4972463;28;20027;-72
2022/11/04 11:22:30;;;;;;;7.03;2.30;;;14.50;95.00;;;;;;4972364;28;20508;-71
2022/11/04 11:25:26;;;;;;;9.00;2.10;;;14.30;94.80;;;;;;4988626;28;20418;-71
2022/11/04 11:27:59;;;;;;;10.52;2.50;;;14.40;94.90;;;;;;4973481;28;20031;-71
2022/11/04 11:30:45;;;;;;;6.53;2.20;;;14.20;94.60;;;;;;4973582;28;20035;-71
2022/11/04 11:33:17;;;;;;;4.03;1.70;;;14.20;94.90;;;;;;4972312;28;20476;-71
2022/11/04 11:35:50;;;;;;;4.95;2.03;;;14.00;94.70;;;;;;4972859;28;20099;-72
2022/11/04 11:38:20;;;;;;;4.22;1.50;;;14.30;95.10;;;;;;4973065;28;20027;-74
2022/11/04 11:40:47;;;;;;;2.90;1.70;;;14.10;95.10;;;;;;4973380;28;20034;-72
2022/11/04 11:43:27;;;;;;;3.97;1.90;;;14.30;95.10;;;;;;4972351;28;20101;-75
2022/11/04 11:45:56;;;;;;;7.88;3.33;;;14.40;94.90;;;;;;4988368;28;20629;-72
2022/11/04 11:48:45;;;;;;;6.05;2.33;;;14.40;94.90;;;;;;4988613;28;20446;-72
2022/11/04 11:51:21;;;;;;;8.43;2.55;;;14.40;95.10;;;;;;4988308;28;20027;-75
2022/11/04 11:54:29;;;;;;;6.93;2.15;;;14.50;94.80;;;;;;4988849;28;20359;-75
2022/11/04 11:56:58;;;;;;;5.88;2.20;;;14.60;94.80;;;;;;4964957;28;20035;-73
2022/11/04 11:59:42;;;;;;;5.72;2.15;;;14.60;94.70;;;;;;4973723;28;20018;-75
2022/11/04 12:02:17;;;;;;;4.82;2.15;;;14.50;94.60;;;;;;4972977;28;20103;-72
2022/11/04 12:04:43;;;;;;;8.60;2.58;;;14.40;94.60;;;;;;4972859;28;20401;-72
2022/11/04 12:07:32;;;;;;;6.75;2.30;;;14.50;94.80;;;;;;4971648;28;20039;-73
2022/11/04 12:10:23;;;;;;;5.95;2.28;;;14.50;94.70;;;;;;4971654;28;20110;-70
2022/11/04 12:13:15;;;;;;;8.65;2.42;;;14.50;94.50;;;;;;4972764;28;20035;-69
2022/11/04 12:16:22;;;;;;;6.90;2.45;;;14.70;94.70;;;;;;4972793;28;20118;-72
2022/11/04 12:19:03;;;;;;;2.83;1.90;;;14.60;94.50;;;;;;4972730;28;20551;-71
2022/11/04 12:21:38;;;;;;;10.57;2.22;;;14.60;94.80;;;;;;4972526;28;20409;-74
2022/11/04 12:24:21;;;;;;;6.15;2.50;;;14.70;94.60;;;;;;4971404;28;20023;-73
2022/11/04 12:27:11;;;;;;;5.57;2.17;;;14.70;94.50;;;;;;4972012;28;20019;-73
2022/11/04 12:29:50;;;;;;;10.93;2.80;;;14.70;94.70;;;;;;4972746;28;20496;-74
2022/11/04 12:32:47;;;;;;;6.00;2.90;;;14.70;94.80;;;;;;4972461;28;20085;-74
2022/11/04 12:35:25;;;;;;;7.15;2.85;;;14.80;94.60;;;;;;4972540;28;20035;-75
2022/11/04 12:38:02;;;;;;;;;;;14.70;94.30;;;;;;4971739;28;20041;-75
2022/11/04 12:40:37;;;;;;;6.93;2.35;;;14.50;94.10;;;;;;4972618;28;19996;-74
2022/11/04 12:43:03;;;;;;;23.33;13.10;;;14.50;94.40;;;;;;4972519;28;20464;-75
2022/11/04 12:45:37;;;;;;;9.38;3.50;;;14.50;94.40;;;;;;4971345;28;20081;-74
2022/11/04 12:48:08;;;;;;;5.25;2.42;;;14.50;94.60;;;;;;4971155;28;20027;-72
2022/11/04 12:50:38;;;;;;;5.75;2.28;;;14.60;94.60;;;;;;4971765;28;20031;-74
2022/11/04 12:56:39;;;;;;;5.05;2.30;;;14.80;94.30;;;;;;4962192;28;20057;-73
2022/11/04 12:59:36;;;;;;;7.80;2.75;;;14.90;94.10;;;;;;4972312;28;20090;-72
2022/11/04 13:02:18;;;;;;;5.82;1.65;;;14.90;93.90;;;;;;4971061;28;20039;-75
2022/11/04 13:05:17;;;;;;;5.55;2.00;;;14.90;94.00;;;;;;4972312;28;20039;-72
2022/11/04 13:07:58;;;;;;;6.15;2.15;;;14.90;93.80;;;;;;4971517;28;20050;-74
2022/11/04 13:10:41;;;;;;;3.38;1.95;;;15.00;93.60;;;;;;4972222;28;20046;-72
2022/11/04 13:13:09;;;;;;;3.88;1.75;;;15.10;94.00;;;;;;4972309;28;20315;-73
2022/11/04 13:15:57;;;;;;;54.33;27.48;;;15.10;93.80;;;;;;4972045;28;20035;-73
2022/11/04 13:18:27;;;;;;;11.80;5.50;;;15.20;93.80;;;;;;4972154;28;20039;-72
2022/11/04 13:21:22;;;;;;;5.10;2.10;;;15.10;93.50;;;;;;4972585;28;20122;-73
2022/11/04 13:23:53;;;;;;;6.85;2.03;;;14.90;93.60;;;;;;4954658;28;20460;-72
2022/11/04 13:26:19;;;;;;;8.35;2.05;;;14.80;93.60;;;;;;4971910;28;20038;-73
2022/11/04 13:28:58;;;;;;;5.22;2.63;;;14.80;93.90;;;;;;4972248;28;20045;-72
2022/11/04 13:31:46;;;;;;;4.30;2.00;;;14.60;94.10;;;;;;4972514;28;20038;-75
2022/11/04 13:34:35;;;;;;;4.85;2.00;;;14.60;94.40;;;;;;4971856;28;20023;-75
2022/11/04 13:37:16;;;;;;;5.15;1.90;;;14.80;94.30;;;;;;4972048;28;20097;-73
2022/11/04 13:39:56;;;;;;;6.68;2.20;;;14.90;94.10;;;;;;4972147;28;20023;-73
2022/11/04 13:42:42;;;;;;;5.15;2.05;;;15.00;94.10;;;;;;4972124;28;20027;-73
2022/11/04 13:45:14;;;;;;;6.88;2.38;;;14.80;93.90;;;;;;4971728;28;20089;-74